Time;durP1;ratioP1;P1;durP2;ratioP2;P2;SDS_P1;SDS_P2;PMS_P1;PMS_P2;Temp;Humidity;BMP_temperature;BMP_pressure;BME280_temperature;BME280_humidity;BME280_pressure;Samples;Min_cycle;Max_cycle;Signal;HPM_P1;HPM_P2
2023/07/12 00:00:21;;;;;;;;;;;18.90;99.90;;;;;;5022744;28;20397;-80
2023/07/12 00:02:48;;;;;;;;;;;18.90;99.90;;;;;;5001727;28;19921;-81
2023/07/12 00:05:14;;;;;;;;;;;18.90;99.90;;;;;;5016369;28;19929;-80
2023/07/12 00:07:39;;;;;;;;;;;18.90;99.90;;;;;;5021207;28;19920;-80
2023/07/12 00:10:31;;;;;;;;;;;19.00;99.90;;;;;;5005683;28;19909;-80
2023/07/12 00:12:57;;;;;;;;;;;18.90;99.90;;;;;;5021529;28;19975;-79
2023/07/12 00:15:24;;;;;;;;;;;18.90;99.90;;;;;;5023839;28;20015;-80
2023/07/12 00:17:50;;;;;;;;;;;18.90;99.90;;;;;;5000341;28;20381;-80
2023/07/12 00:20:21;;;;;;;;;;;18.80;99.90;;;;;;5005561;28;20304;-80
2023/07/12 00:22:47;;;;;;;;;;;18.80;99.90;;;;;;5005889;28;19909;-81
2023/07/12 00:25:12;;;;;;;;;;;18.80;99.90;;;;;;5015544;28;20533;-81
2023/07/12 00:27:38;;;;;;;;;;;18.80;99.90;;;;;;5022492;28;20015;-80
2023/07/12 00:30:09;;;;;;;;;;;18.90;99.90;;;;;;5020693;28;20031;-79
2023/07/12 00:32:37;;;;;;;;;;;18.80;99.90;;;;;;5023352;28;19916;-79
2023/07/12 00:35:03;;;;;;;;;;;18.80;99.90;;;;;;5004632;28;19948;-79
2023/07/12 00:37:28;;;;;;;;;;;18.70;99.90;;;;;;5005056;28;19917;-79
2023/07/12 00:39:56;;;;;;;;;;;18.60;99.90;;;;;;5022574;28;19917;-80
2023/07/12 00:42:29;;;;;;;;;;;18.50;99.90;;;;;;5004042;28;19909;-79
2023/07/12 00:44:56;;;;;;;;;;;18.50;99.90;;;;;;5018349;28;19971;-80
2023/07/12 00:47:21;;;;;;;;;;;18.50;99.90;;;;;;5021665;28;19932;-79
2023/07/12 00:49:50;;;;;;;;;;;18.50;99.90;;;;;;5036863;28;20258;-80
2023/07/12 00:52:18;;;;;;;;;;;18.40;99.90;;;;;;5022419;28;19909;-79
2023/07/12 00:54:49;;;;;;;;;;;18.40;99.90;;;;;;4997983;28;20377;-80
2023/07/12 00:57:15;;;;;;;;;;;18.40;99.90;;;;;;5018878;28;19917;-79
2023/07/12 00:59:41;;;;;;;;;;;18.40;99.90;;;;;;4998948;28;19909;-80
2023/07/12 01:02:08;;;;;;;;;;;18.40;99.90;;;;;;4998379;28;19939;-80
2023/07/12 01:04:42;;;;;;;;;;;18.30;99.90;;;;;;4999271;28;19917;-80
2023/07/12 01:07:08;;;;;;;;;;;18.30;99.90;;;;;;5002560;28;19921;-80
2023/07/12 01:09:34;;;;;;;;;;;18.20;99.90;;;;;;5022619;28;19920;-80
2023/07/12 01:12:01;;;;;;;;;;;18.10;99.90;;;;;;5022090;28;19917;-80
2023/07/12 01:14:27;;;;;;;;;;;18.10;99.90;;;;;;5021367;28;19971;-78
2023/07/12 01:17:01;;;;;;;;;;;18.10;99.90;;;;;;5003931;28;19920;-80
2023/07/12 01:19:26;;;;;;;;;;;18.00;99.90;;;;;;4997447;28;19913;-79
2023/07/12 01:21:53;;;;;;;;;;;18.00;99.90;;;;;;5000215;28;20427;-79
2023/07/12 01:24:19;;;;;;;;;;;17.90;99.90;;;;;;5037306;28;19979;-78
2023/07/12 01:26:46;;;;;;;;;;;17.90;99.90;;;;;;5021768;28;19974;-79
2023/07/12 01:29:12;;;;;;;;;;;17.90;99.90;;;;;;4998089;28;19916;-80
2023/07/12 01:31:41;;;;;;;;;;;17.90;99.90;;;;;;5021645;28;19909;-81
2023/07/12 01:34:07;;;;;;;;;;;17.90;99.90;;;;;;4999017;28;20087;-79
2023/07/12 01:36:32;;;;;;;;;;;17.80;99.90;;;;;;5003209;28;19967;-79
2023/07/12 01:38:59;;;;;;;;;;;17.80;99.90;;;;;;5019325;28;19917;-79
2023/07/12 01:41:25;;;;;;;;;;;17.80;99.90;;;;;;5020062;28;19961;-79
2023/07/12 01:43:52;;;;;;;;;;;17.80;99.90;;;;;;5021002;28;19913;-80
2023/07/12 01:46:20;;;;;;;;;;;17.80;99.90;;;;;;5004463;28;19913;-79
2023/07/12 01:48:46;;;;;;;;;;;17.80;99.90;;;;;;5020524;28;19917;-79
2023/07/12 01:51:12;;;;;;;;;;;17.80;99.90;;;;;;5002439;28;20279;-79
2023/07/12 01:53:37;;;;;;;;;;;17.80;99.90;;;;;;5004459;28;19921;-80
2023/07/12 01:56:04;;;;;;;;;;;17.80;99.90;;;;;;5019553;28;19925;-81
2023/07/12 01:58:30;;;;;;;;;;;17.70;99.90;;;;;;5017089;28;20003;-82
2023/07/12 02:00:56;;;;;;;;;;;17.70;99.90;;;;;;5034464;28;19909;-82
2023/07/12 02:03:22;;;;;;;;;;;17.60;99.90;;;;;;4991490;28;19922;-81
2023/07/12 02:05:47;;;;;;;;;;;17.60;99.90;;;;;;5016310;28;19924;-81
2023/07/12 02:08:15;;;;;;;;;;;17.60;99.90;;;;;;5017493;28;20292;-81
2023/07/12 02:10:41;;;;;;;;;;;17.60;99.90;;;;;;5000977;28;19913;-81
2023/07/12 02:13:07;;;;;;;;;;;17.60;99.90;;;;;;4981555;28;20845;-82
2023/07/12 02:15:33;;;;;;;;;;;17.60;99.90;;;;;;5016425;28;20313;-82
2023/07/12 02:18:00;;;;;;;;;;;17.50;99.90;;;;;;5000213;28;19917;-82
2023/07/12 02:20:25;;;;;;;;;;;17.50;99.90;;;;;;5015440;28;19917;-82
2023/07/12 02:22:51;;;;;;;;;;;17.50;99.90;;;;;;5016928;28;19920;-83
2023/07/12 02:25:17;;;;;;;;;;;17.40;99.90;;;;;;5000097;28;19917;-83
2023/07/12 02:27:44;;;;;;;;;;;17.30;99.90;;;;;;5001388;28;19922;-83
2023/07/12 02:30:12;;;;;;;;;;;17.30;99.90;;;;;;5000155;28;19920;-83
2023/07/12 02:32:37;;;;;;;;;;;17.30;99.90;;;;;;4981803;28;19920;-83
2023/07/12 02:35:03;;;;;;;;;;;17.30;99.90;;;;;;5015203;28;19918;-83
2023/07/12 02:37:28;;;;;;;;;;;17.20;99.90;;;;;;5016946;28;20365;-83
2023/07/12 02:39:55;;;;;;;;;;;17.10;99.90;;;;;;4978976;28;19971;-83
2023/07/12 02:42:20;;;;;;;;;;;17.10;99.90;;;;;;4996676;28;19948;-82
2023/07/12 02:44:46;;;;;;;;;;;17.00;99.90;;;;;;4980656;28;19917;-83
2023/07/12 02:47:12;;;;;;;;;;;17.00;99.90;;;;;;5001684;28;20341;-82
2023/07/12 02:49:38;;;;;;;;;;;17.00;99.90;;;;;;4999905;28;20281;-82
2023/07/12 02:52:04;;;;;;;;;;;16.90;99.90;;;;;;5003216;28;19968;-83
2023/07/12 02:54:30;;;;;;;;;;;16.80;99.90;;;;;;5004063;28;19909;-82
2023/07/12 02:56:56;;;;;;;;;;;16.80;99.90;;;;;;5004438;28;20372;-82
2023/07/12 02:59:24;;;;;;;;;;;16.80;99.90;;;;;;5002116;28;19943;-82
2023/07/12 03:01:50;;;;;;;;;;;16.80;99.90;;;;;;4987945;28;19917;-82
2023/07/12 03:04:16;;;;;;;;;;;16.90;99.90;;;;;;5020783;28;19948;-82
2023/07/12 03:06:42;;;;;;;;;;;16.90;99.90;;;;;;5036328;28;19913;-82
2023/07/12 03:09:08;;;;;;;;;;;17.00;99.90;;;;;;5024416;28;19921;-82
2023/07/12 03:11:36;;;;;;;;;;;17.00;99.90;;;;;;5019719;28;20266;-82
2023/07/12 03:14:04;;;;;;;;;;;16.90;99.90;;;;;;5024509;28;19921;-82
2023/07/12 03:16:30;;;;;;;;;;;16.90;99.90;;;;;;5024242;28;19980;-82
2023/07/12 03:18:56;;;;;;;;;;;16.90;99.90;;;;;;5023833;28;19917;-82
2023/07/12 03:21:21;;;;;;;;;;;16.80;99.90;;;;;;5024256;28;19936;-82
2023/07/12 03:23:47;;;;;;;;;;;16.80;99.90;;;;;;5005344;28;19916;-82
2023/07/12 03:26:13;;;;;;;;;;;16.80;99.90;;;;;;5024188;28;19975;-81
2023/07/12 03:28:38;;;;;;;;;;;16.80;99.90;;;;;;5023742;28;20560;-81
2023/07/12 03:31:07;;;;;;;;;;;16.80;99.90;;;;;;5038579;28;20464;-81
2023/07/12 03:33:33;;;;;;;;;;;16.70;99.90;;;;;;5039629;28;19916;-82
2023/07/12 03:35:59;;;;;;;;;;;16.70;99.90;;;;;;5039802;28;19917;-82
2023/07/12 03:38:25;;;;;;;;;;;16.70;99.90;;;;;;5036446;28;19913;-81
2023/07/12 03:40:51;;;;;;;;;;;16.60;99.90;;;;;;5023611;28;19917;-80
2023/07/12 03:43:16;;;;;;;;;;;16.60;99.90;;;;;;5038432;28;19913;-82
2023/07/12 03:45:42;;;;;;;;;;;16.60;99.90;;;;;;5037809;28;19924;-81
2023/07/12 03:48:08;;;;;;;;;;;16.50;99.90;;;;;;5022753;28;20079;-81
2023/07/12 03:50:33;;;;;;;;;;;16.50;99.90;;;;;;5006569;28;20432;-80
2023/07/12 03:52:59;;;;;;;;;;;16.50;99.90;;;;;;5018804;28;20056;-80
2023/07/12 03:55:24;;;;;;;;;;;16.50;99.90;;;;;;5038492;28;19990;-80
2023/07/12 03:57:50;;;;;;;;;;;16.50;99.90;;;;;;5023393;28;20034;-80
2023/07/12 04:00:18;;;;;;;;;;;16.60;99.90;;;;;;5000867;28;19915;-80
2023/07/12 04:02:43;;;;;;;;;;;16.60;99.90;;;;;;5001946;28;20440;-80
2023/07/12 04:05:09;;;;;;;;;;;16.60;99.90;;;;;;5001142;28;19923;-81
2023/07/12 04:07:34;;;;;;;;;;;16.60;99.90;;;;;;5038243;28;19917;-80
2023/07/12 04:10:00;;;;;;;;;;;16.60;99.90;;;;;;5000857;28;19920;-80
2023/07/12 04:12:25;;;;;;;;;;;16.60;99.90;;;;;;5037094;28;19921;-80
2023/07/12 04:14:51;;;;;;;;;;;16.60;99.90;;;;;;5020329;28;20361;-80
2023/07/12 04:17:17;;;;;;;;;;;16.70;99.90;;;;;;5022745;28;19913;-81
2023/07/12 04:19:42;;;;;;;;;;;16.60;99.90;;;;;;5022988;28;19919;-80
2023/07/12 04:22:08;;;;;;;;;;;16.60;99.90;;;;;;5021160;28;19947;-80
2023/07/12 04:24:33;;;;;;;;;;;16.70;99.90;;;;;;4999625;28;19913;-81
2023/07/12 04:26:59;;;;;;;;;;;16.70;99.90;;;;;;5004658;28;19924;-81
2023/07/12 04:29:26;;;;;;;;;;;16.70;99.90;;;;;;5023039;28;19917;-80
2023/07/12 04:31:52;;;;;;;;;;;16.70;99.90;;;;;;4999854;28;20008;-81
2023/07/12 04:34:18;;;;;;;;;;;16.70;99.90;;;;;;5023325;28;19994;-80
2023/07/12 04:36:43;;;;;;;;;;;16.70;99.90;;;;;;5037937;28;21297;-80
2023/07/12 04:39:09;;;;;;;;;;;16.70;99.90;;;;;;5021728;28;19920;-80
2023/07/12 04:41:36;;;;;;;;;;;16.70;99.90;;;;;;5037390;28;19928;-80
2023/07/12 04:44:02;;;;;;;;;;;16.60;99.90;;;;;;5022842;28;19909;-80
2023/07/12 04:46:28;;;;;;;;;;;16.70;99.90;;;;;;5021567;28;19917;-80
2023/07/12 04:48:54;;;;;;;;;;;16.70;99.90;;;;;;5001281;28;20442;-80
2023/07/12 04:51:20;;;;;;;;;;;16.70;99.90;;;;;;5036397;28;20258;-80
2023/07/12 04:53:48;;;;;;;;;;;16.70;99.90;;;;;;5037508;28;19913;-80
2023/07/12 04:56:15;;;;;;;;;;;16.70;99.90;;;;;;5037241;28;19917;-81
2023/07/12 04:58:40;;;;;;;;;;;16.70;99.90;;;;;;5022881;28;19988;-80
2023/07/12 05:01:06;;;;;;;;;;;16.70;99.90;;;;;;5021763;28;19916;-80
2023/07/12 05:03:31;;;;;;;;;;;16.70;99.90;;;;;;5000017;28;20447;-80
2023/07/12 05:05:57;;;;;;;;;;;16.70;99.90;;;;;;5001713;28;19921;-80
2023/07/12 05:08:23;;;;;;;;;;;16.70;99.90;;;;;;5000133;28;19927;-79
2023/07/12 05:10:48;;;;;;;;;;;16.70;99.90;;;;;;5036853;28;19913;-80
2023/07/12 05:13:14;;;;;;;;;;;16.70;99.90;;;;;;4998293;28;19909;-79
2023/07/12 05:15:39;;;;;;;;;;;16.70;99.90;;;;;;5022308;28;20609;-80
2023/07/12 05:18:05;;;;;;;;;;;16.70;99.90;;;;;;5021216;28;20040;-80
2023/07/12 05:20:31;;;;;;;;;;;16.60;99.90;;;;;;5004752;28;20419;-80
2023/07/12 05:22:56;;;;;;;;;;;16.60;99.90;;;;;;5000034;28;19908;-80
2023/07/12 05:25:23;;;;;;;;;;;16.60;99.90;;;;;;5023178;28;20008;-79
2023/07/12 05:27:48;;;;;;;;;;;16.60;99.90;;;;;;5037522;28;20425;-80
2023/07/12 05:30:14;;;;;;;;;;;16.70;99.90;;;;;;5004799;28;19971;-79
2023/07/12 05:32:40;;;;;;;;;;;16.80;99.90;;;;;;5000235;28;20315;-80
2023/07/12 05:35:06;;;;;;;;;;;16.90;99.90;;;;;;5020818;28;19913;-79
2023/07/12 05:37:32;;;;;;;;;;;16.90;99.90;;;;;;5016479;28;20000;-79
2023/07/12 05:39:58;;;;;;;;;;;17.00;99.90;;;;;;5004491;28;19966;-79
2023/07/12 05:42:23;;;;;;;;;;;17.00;99.90;;;;;;4998985;28;19924;-79
2023/07/12 05:44:49;;;;;;;;;;;17.00;99.90;;;;;;5002113;28;19924;-79
2023/07/12 05:47:15;;;;;;;;;;;17.10;99.90;;;;;;5022409;28;19917;-79
2023/07/12 05:49:41;;;;;;;;;;;17.10;99.90;;;;;;5004323;28;19919;-79
2023/07/12 05:52:06;;;;;;;;;;;17.10;99.90;;;;;;4998043;28;19909;-79
2023/07/12 05:54:32;;;;;;;;;;;17.10;99.90;;;;;;5004586;28;22338;-78
2023/07/12 05:56:58;;;;;;;;;;;17.20;99.90;;;;;;4998381;28;19913;-79
2023/07/12 05:59:23;;;;;;;;;;;17.30;99.90;;;;;;5003897;28;20335;-80
2023/07/12 06:01:51;;;;;;;;;;;17.30;99.90;;;;;;5021076;28;20360;-78
2023/07/12 06:04:18;;;;;;;;;;;17.20;99.90;;;;;;5021636;28;19921;-79
2023/07/12 06:06:45;;;;;;;;;;;17.20;99.90;;;;;;5016860;28;19917;-80
2023/07/12 06:09:10;;;;;;;;;;;17.20;99.90;;;;;;5019524;28;20047;-79
2023/07/12 06:11:36;;;;;;;;;;;17.30;99.90;;;;;;4999352;28;20055;-79
2023/07/12 06:14:02;;;;;;;;;;;17.30;99.90;;;;;;4999094;28;19963;-82
2023/07/12 06:16:27;;;;;;;;;;;17.40;99.90;;;;;;4999449;28;19948;-80
2023/07/12 06:18:53;;;;;;;;;;;17.30;99.90;;;;;;4997333;28;19913;-79
2023/07/12 06:21:19;;;;;;;;;;;17.30;99.90;;;;;;5006222;28;19924;-79
2023/07/12 06:23:45;;;;;;;;;;;17.40;99.90;;;;;;5003065;28;19917;-79
2023/07/12 06:26:11;;;;;;;;;;;17.40;99.90;;;;;;4998749;28;19963;-79
2023/07/12 06:28:36;;;;;;;;;;;17.50;99.90;;;;;;4997512;28;20484;-79
2023/07/12 06:31:02;;;;;;;;;;;17.50;99.90;;;;;;5021317;28;19913;-79
2023/07/12 06:33:31;;;;;;;;;;;17.50;99.90;;;;;;5004073;28;20349;-80
2023/07/12 06:35:58;;;;;;;;;;;17.60;99.90;;;;;;5037266;28;20048;-80
2023/07/12 06:38:23;;;;;;;;;;;17.60;99.90;;;;;;5021862;28;19913;-80
2023/07/12 06:40:54;;;;;;;;;;;17.60;99.90;;;;;;4998818;28;19913;-80
2023/07/12 06:43:20;;;;;;;;;;;17.60;99.90;;;;;;5022264;28;19994;-80
2023/07/12 06:45:46;;;;;;;;;;;17.70;99.90;;;;;;4999607;28;20047;-80
2023/07/12 06:48:11;;;;;;;;;;;17.70;99.90;;;;;;5021325;28;20047;-82
2023/07/12 06:50:39;;;;;;;;;;;17.90;99.90;;;;;;5019694;28;20254;-79
2023/07/12 06:53:04;;;;;;;;;;;18.00;99.90;;;;;;5036089;28;19909;-79
2023/07/12 06:55:30;;;;;;;;;;;18.00;99.90;;;;;;5022159;28;20018;-79
2023/07/12 06:57:55;;;;;;;;;;;18.00;99.90;;;;;;5020509;28;19913;-79
2023/07/12 07:00:21;;;;;;;;;;;18.00;99.90;;;;;;5002712;28;19913;-79
2023/07/12 07:02:47;;;;;;;;;;;18.00;99.90;;;;;;5036003;28;20056;-79
2023/07/12 07:05:12;;;;;;;;;;;18.10;99.90;;;;;;5000679;28;19963;-80
2023/07/12 07:07:38;;;;;;;;;;;18.20;99.90;;;;;;5021342;28;20514;-80
2023/07/12 07:10:07;;;;;;;;;;;18.10;99.90;;;;;;4997675;28;19940;-78
2023/07/12 07:12:32;;;;;;;;;;;18.10;99.90;;;;;;5020577;28;19948;-79
2023/07/12 07:14:58;;;;;;;;;;;18.10;99.90;;;;;;5020342;28;19968;-78
2023/07/12 07:17:24;;;;;;;;;;;18.10;99.90;;;;;;5020793;28;19967;-79
2023/07/12 07:19:50;;;;;;;;;;;18.10;99.90;;;;;;5002370;28;19913;-78
2023/07/12 07:22:19;;;;;;;;;;;18.20;99.90;;;;;;4997986;28;19913;-78
2023/07/12 07:24:44;;;;;;;;;;;18.20;99.90;;;;;;5012258;28;19917;-79
2023/07/12 07:27:12;;;;;;;;;;;18.30;99.90;;;;;;5020697;28;19913;-78
2023/07/12 07:29:43;;;;;;;;;;;18.50;99.90;;;;;;5002124;28;19970;-79
2023/07/12 07:32:09;;;;;;;;;;;18.60;99.90;;;;;;5001106;28;19916;-79
2023/07/12 07:34:34;;;;;;;;;;;18.70;99.90;;;;;;5021783;28;19917;-80
2023/07/12 07:37:00;;;;;;;;;;;18.70;99.90;;;;;;5003055;28;19913;-79
2023/07/12 07:39:27;;;;;;;;;;;18.70;99.90;;;;;;5024521;28;19909;-79
2023/07/12 07:41:52;;;;;;;;;;;18.70;99.90;;;;;;5038651;28;19921;-79
2023/07/12 07:44:18;;;;;;;;;;;18.80;99.90;;;;;;5002408;28;19912;-79
2023/07/12 07:46:47;;;;;;;;;;;18.80;99.90;;;;;;5021519;28;19917;-79
2023/07/12 07:49:13;;;;;;;;;;;18.70;99.90;;;;;;5000602;28;19971;-80
2023/07/12 07:51:41;;;;;;;;;;;18.80;99.90;;;;;;5006473;28;20395;-81
2023/07/12 07:54:07;;;;;;;;;;;18.90;99.90;;;;;;5003433;28;19909;-78
2023/07/12 07:56:32;;;;;;;;;;;19.00;99.90;;;;;;5024644;28;19917;-79
2023/07/12 07:59:02;;;;;;;;;;;19.10;99.90;;;;;;5001205;28;19921;-79
2023/07/12 08:01:27;;;;;;;;;;;19.10;99.90;;;;;;5007268;28;19979;-78
2023/07/12 08:03:56;;;;;;;;;;;19.20;99.90;;;;;;5000593;28;20487;-78
2023/07/12 08:06:21;;;;;;;;;;;19.20;99.90;;;;;;5022288;28;19924;-78
2023/07/12 08:08:47;;;;;;;;;;;19.20;99.90;;;;;;5005802;28;19913;-78
2023/07/12 08:11:15;;;;;;;;;;;19.20;99.90;;;;;;5024454;28;20400;-79
2023/07/12 08:13:44;;;;;;;;;;;19.20;99.90;;;;;;5001439;28;19963;-80
2023/07/12 08:16:10;;;;;;;;;;;19.10;99.90;;;;;;5023270;28;19956;-80
2023/07/12 08:18:47;;;;;;;;;;;19.10;99.90;;;;;;5001844;28;19944;-80
2023/07/12 08:21:13;;;;;;;;;;;19.10;99.90;;;;;;5023703;28;21056;-79
2023/07/12 08:23:41;;;;;;;;;;;19.10;99.90;;;;;;5002933;28;19913;-80
2023/07/12 08:26:07;;;;;;;;;;;19.00;99.90;;;;;;5002435;28;19939;-80
2023/07/12 08:28:35;;;;;;;;;;;19.10;99.90;;;;;;5000520;28;20967;-80
2023/07/12 08:31:18;;;;;;;;;;;19.00;99.90;;;;;;5024358;28;19909;-79
2023/07/12 08:33:44;;;;;;;;;;;19.00;99.90;;;;;;5038472;28;20273;-79
2023/07/12 08:36:12;;;;;;;;;;;19.10;99.90;;;;;;5022846;28;19918;-79
2023/07/12 08:38:43;;;;;;;;;;;19.20;99.90;;;;;;5023370;28;19909;-79
2023/07/12 08:41:15;;;;;;;;;;;19.30;99.90;;;;;;5021703;28;20054;-79
2023/07/12 08:43:46;;;;;;;;;;;19.50;99.90;;;;;;4998436;28;19913;-81
2023/07/12 08:46:22;;;;;;;;;;;19.90;99.90;;;;;;5023382;28;20421;-81
2023/07/12 08:48:52;;;;;;;;;;;20.00;99.90;;;;;;5021603;28;19924;-80
2023/07/12 08:51:25;;;;;;;;;;;20.10;99.90;;;;;;4998288;28;19927;-79
2023/07/12 08:53:58;;;;;;;;;;;20.00;99.90;;;;;;4998463;28;19909;-79
2023/07/12 08:56:30;;;;;;;;;;;20.10;99.90;;;;;;4999500;28;19913;-80
2023/07/12 08:58:59;;;;;;;;;;;20.10;99.90;;;;;;5022761;28;19947;-80
2023/07/12 09:01:34;;;;;;;;;;;20.20;99.90;;;;;;5001075;28;19920;-79
2023/07/12 09:04:02;;;;;;;;;;;20.20;99.90;;;;;;5038784;28;19917;-79
2023/07/12 09:06:38;;;;;;;;;;;20.20;99.90;;;;;;5001908;28;20411;-79
2023/07/12 09:09:04;;;;;;;;;;;20.20;99.90;;;;;;5036967;28;19917;-78
2023/07/12 09:11:38;;;;;;;;;;;20.20;99.90;;;;;;5022843;28;20293;-79
2023/07/12 09:14:07;;;;;;;;;;;20.30;99.90;;;;;;4999900;28;19917;-79
2023/07/12 09:16:40;;;;;;;;;;;20.60;99.90;;;;;;4999295;28;19913;-79
2023/07/12 09:19:22;;;;;;;;;;;20.70;99.90;;;;;;5019692;28;19920;-79
2023/07/12 09:21:52;;;;;;;;;;;20.80;99.90;;;;;;5004371;28;19917;-79
2023/07/12 09:24:26;;;;;;;;;;;20.90;99.90;;;;;;5022444;28;19913;-79
2023/07/12 09:27:05;;;;;;;;;;;20.90;99.90;;;;;;5020923;28;19921;-79
2023/07/12 09:29:33;;;;;;;;;;;21.10;99.90;;;;;;4998906;28;19924;-79
2023/07/12 09:32:02;;;;;;;;;;;21.30;99.90;;;;;;5021809;28;19956;-79
2023/07/12 09:34:36;;;;;;;;;;;21.40;99.90;;;;;;5004834;28;20036;-79
2023/07/12 09:37:05;;;;;;;;;;;21.50;99.90;;;;;;5021243;28;19916;-79
2023/07/12 09:39:31;;;;;;;;;;;21.80;99.90;;;;;;5021838;28;19913;-79
2023/07/12 09:42:03;;;;;;;;;;;22.60;99.90;;;;;;5021436;28;20004;-79
2023/07/12 09:44:43;;;;;;;;;;;23.40;99.90;;;;;;5021735;28;20007;-79
2023/07/12 09:47:33;;;;;;;;;;;23.70;99.90;;;;;;5035980;28;19927;-79
2023/07/12 09:50:06;;;;;;;;;;;24.00;99.90;;;;;;5020971;28;19998;-79
2023/07/12 09:52:36;;;;;;;;;;;24.20;99.90;;;;;;4998403;28;19913;-78
2023/07/12 09:55:31;;;;;;;;;;;24.30;99.90;;;;;;5021268;28;19956;-79
2023/07/12 09:58:20;;;;;;;;;;;24.70;99.90;;;;;;5010626;28;19920;-79
2023/07/12 10:01:19;;;;;;;;;;;25.20;99.90;;;;;;5000599;28;19909;-79
2023/07/12 10:03:48;;;;;;;;;;;25.70;99.90;;;;;;4986735;28;19928;-79
2023/07/12 10:06:20;;;;;;;;;;;25.90;99.90;;;;;;5019744;28;19917;-78
2023/07/12 10:08:57;;;;;;;;;;;25.60;99.90;;;;;;5022621;28;19917;-79
2023/07/12 10:11:52;;;;;;;;;;;25.60;99.90;;;;;;5021639;28;19922;-80
2023/07/12 10:14:18;;;;;;;;;;;25.50;99.90;;;;;;5021915;28;19909;-78
2023/07/12 10:16:54;;;;;;;;;;;25.90;99.90;;;;;;5001860;28;19913;-78
2023/07/12 10:19:26;;;;;;;;;;;25.80;99.90;;;;;;4998747;28;20284;-78
2023/07/12 10:21:56;;;;;;;;;;;25.10;99.90;;;;;;5004174;28;19917;-78
2023/07/12 10:24:28;;;;;;;;;;;24.50;99.90;;;;;;4997995;28;19944;-78
2023/07/12 10:26:57;;;;;;;;;;;24.20;99.90;;;;;;4999095;28;19921;-78
2023/07/12 10:29:45;;;;;;;;;;;24.10;99.90;;;;;;5019598;28;19989;-79
2023/07/12 10:32:19;;;;;;;;;;;24.40;99.90;;;;;;5003194;28;19951;-79
2023/07/12 10:34:47;;;;;;;;;;;24.30;99.90;;;;;;5020758;28;19971;-79
2023/07/12 10:37:34;;;;;;;;;;;23.90;99.90;;;;;;4998443;28;19939;-79
2023/07/12 10:39:59;;;;;;;;;;;23.50;99.90;;;;;;5003266;28;20005;-79
2023/07/12 10:42:34;;;;;;;;;;;23.00;99.90;;;;;;5021445;28;19924;-77
2023/07/12 10:45:02;;;;;;;;;;;22.60;99.90;;;;;;5002222;28;19916;-78
2023/07/12 10:47:30;;;;;;;;;;;22.50;99.90;;;;;;5021887;28;19964;-79
2023/07/12 10:50:07;;;;;;;;;;;22.30;99.90;;;;;;5020955;28;20261;-80
2023/07/12 10:53:01;;;;;;;;;;;22.00;99.90;;;;;;4999248;28;19917;-79
2023/07/12 10:55:36;;;;;;;;;;;21.60;99.90;;;;;;5020995;28;19915;-79
2023/07/12 10:58:20;;;;;;;;;;;21.20;99.90;;;;;;5004906;28;21174;-78
2023/07/12 11:00:55;;;;;;;;;;;20.90;99.90;;;;;;5021091;28;19923;-79
2023/07/12 11:03:47;;;;;;;;;;;21.00;99.90;;;;;;5013841;28;19909;-78
2023/07/12 11:06:26;;;;;;;;;;;21.10;99.90;;;;;;5017906;28;19924;-78
2023/07/12 11:09:04;;;;;;;;;;;21.50;99.90;;;;;;4998353;28;19942;-78
2023/07/12 11:11:34;;;;;;;;;;;22.40;99.90;;;;;;5000594;28;20427;-78
2023/07/12 11:14:14;;;;;;;;;;;23.10;99.90;;;;;;5003296;28;19920;-79
2023/07/12 11:16:51;;;;;;;;;;;23.80;99.90;;;;;;5023923;28;19913;-79
2023/07/12 11:19:33;;;;;;;;;;;23.90;99.90;;;;;;5000561;28;19972;-79
2023/07/12 11:22:04;;;;;;;;;;;23.60;99.90;;;;;;5024563;28;20377;-80
2023/07/12 11:24:48;;;;;;;;;;;23.30;99.90;;;;;;5016454;28;19919;-80
2023/07/12 11:27:28;;;;;;;;;;;23.20;99.90;;;;;;5024557;28;19923;-78
2023/07/12 11:29:57;;;;;;;;;;;23.20;99.90;;;;;;5001319;28;20006;-78
2023/07/12 11:32:33;;;;;;;;;;;23.70;99.90;;;;;;5024564;28;19909;-80
2023/07/12 11:35:09;;;;;;;;;;;24.60;99.90;;;;;;5024165;28;20425;-79
2023/07/12 11:37:44;;;;;;;;;;;25.20;99.90;;;;;;5024378;28;19956;-79
2023/07/12 11:40:22;;;;;;;;;;;25.60;99.90;;;;;;5038965;28;19917;-79
2023/07/12 11:42:51;;;;;;;;;;;25.90;99.90;;;;;;5024379;28;20043;-81
2023/07/12 11:45:19;;;;;;;;;;;26.70;99.90;;;;;;5024070;28;20312;-80
2023/07/12 11:47:53;;;;;;;;;;;27.10;99.90;;;;;;5015474;28;19917;-80
2023/07/12 11:50:26;;;;;;;;;;;27.40;99.90;;;;;;5006199;28;20055;-79
2023/07/12 11:52:59;;;;;;;;;;;27.70;99.90;;;;;;5022612;28;20357;-79
2023/07/12 11:55:28;;;;;;;;;;;27.90;99.90;;;;;;5016139;28;20051;-79
2023/07/12 11:57:57;;;;;;;;;;;28.10;99.90;;;;;;5038007;28;20063;-79
2023/07/12 12:00:32;;;;;;;;;;;28.30;99.90;;;;;;5000174;28;19909;-79
2023/07/12 12:02:58;;;;;;;;;;;28.90;99.90;;;;;;5023257;28;19921;-79
2023/07/12 12:05:36;;;;;;;;;;;29.10;99.90;;;;;;5022685;28;20093;-79
2023/07/12 12:08:08;;;;;;;;;;;28.80;99.60;;;;;;5019260;28;19909;-80
2023/07/12 12:10:37;;;;;;;;;;;28.70;99.60;;;;;;4999683;28;20012;-80
2023/07/12 12:13:19;;;;;;;;;;;28.80;98.60;;;;;;5022168;28;19924;-80
2023/07/12 12:15:57;;;;;;;;;;;28.90;98.40;;;;;;5001107;28;19909;-80
2023/07/12 12:18:26;;;;;;;;;;;28.80;98.20;;;;;;5000122;28;19913;-78
2023/07/12 12:20:52;;;;;;;;;;;28.00;97.70;;;;;;5004434;28;19963;-79
2023/07/12 12:23:21;;;;;;;;;;;27.70;96.80;;;;;;5023030;28;19912;-79
2023/07/12 12:25:51;;;;;;;;;;;28.00;97.80;;;;;;5006440;28;19957;-79
2023/07/12 12:28:27;;;;;;;;;;;28.60;97.80;;;;;;5018736;28;19913;-80
2023/07/12 12:30:57;;;;;;;;;;;28.80;96.80;;;;;;5021170;28;19909;-79
2023/07/12 12:33:24;;;;;;;;;;;28.80;96.30;;;;;;5016171;28;20316;-80
2023/07/12 12:36:00;;;;;;;;;;;28.60;97.00;;;;;;5021634;28;19924;-79
2023/07/12 12:38:28;;;;;;;;;;;28.90;97.60;;;;;;5018984;28;20248;-79
2023/07/12 12:40:59;;;;;;;;;;;28.80;95.40;;;;;;5000889;28;20012;-79
2023/07/12 12:43:25;;;;;;;;;;;28.10;95.70;;;;;;5017673;28;19913;-80
2023/07/12 12:45:53;;;;;;;;;;;27.80;96.20;;;;;;5016352;28;19924;-79
2023/07/12 12:48:20;;;;;;;;;;;28.10;96.10;;;;;;5000468;28;19909;-80
2023/07/12 12:50:45;;;;;;;;;;;27.60;95.80;;;;;;5020871;28;19967;-80
2023/07/12 12:53:13;;;;;;;;;;;27.80;96.80;;;;;;5022094;28;19952;-80
2023/07/12 12:55:38;;;;;;;;;;;28.40;96.90;;;;;;5004830;28;20360;-80
2023/07/12 12:58:11;;;;;;;;;;;29.10;97.50;;;;;;4998857;28;19959;-82
2023/07/12 13:00:37;;;;;;;;;;;29.40;97.20;;;;;;5022761;28;19913;-82
2023/07/12 13:03:05;;;;;;;;;;;29.40;96.80;;;;;;4998738;28;20369;-81
2023/07/12 13:05:33;;;;;;;;;;;29.50;97.10;;;;;;5022585;28;19917;-81
2023/07/12 13:08:01;;;;;;;;;;;29.70;97.00;;;;;;5000324;28;19995;-83
2023/07/12 13:10:30;;;;;;;;;;;29.80;97.10;;;;;;5005615;28;19915;-81
2023/07/12 13:12:55;;;;;;;;;;;30.00;95.90;;;;;;5022129;28;19913;-80
2023/07/12 13:15:22;;;;;;;;;;;30.00;95.20;;;;;;5005024;28;20380;-82
2023/07/12 13:17:52;;;;;;;;;;;30.10;95.80;;;;;;5015598;28;20281;-81
2023/07/12 13:20:21;;;;;;;;;;;30.20;94.10;;;;;;5022516;28;19966;-81
2023/07/12 13:22:50;;;;;;;;;;;30.30;93.90;;;;;;5022866;28;19924;-81
2023/07/12 13:25:20;;;;;;;;;;;30.30;93.40;;;;;;5019142;28;19968;-81
2023/07/12 13:27:50;;;;;;;;;;;30.40;93.30;;;;;;4995156;28;20285;-81
2023/07/12 13:30:17;;;;;;;;;;;30.70;93.50;;;;;;5019502;28;19996;-81
2023/07/12 13:32:42;;;;;;;;;;;30.60;91.00;;;;;;5036728;28;19932;-80
2023/07/12 13:35:18;;;;;;;;;;;30.40;91.30;;;;;;5020529;28;19917;-81
2023/07/12 13:37:44;;;;;;;;;;;30.40;91.70;;;;;;4999913;28;20281;-80
2023/07/12 13:40:12;;;;;;;;;;;30.30;90.70;;;;;;5019279;28;19952;-80
2023/07/12 13:42:43;;;;;;;;;;;30.20;90.90;;;;;;5021554;28;19975;-80
2023/07/12 13:45:12;;;;;;;;;;;30.40;91.20;;;;;;5012307;28;20319;-80
2023/07/12 13:47:38;;;;;;;;;;;30.30;90.60;;;;;;5036550;28;20015;-79
2023/07/12 13:50:15;;;;;;;;;;;30.10;90.40;;;;;;5021248;28;19916;-80
2023/07/12 13:52:46;;;;;;;;;;;30.20;90.00;;;;;;5036479;28;19923;-80
2023/07/12 13:55:15;;;;;;;;;;;30.20;90.10;;;;;;5013157;28;19940;-80
2023/07/12 13:57:41;;;;;;;;;;;29.60;90.50;;;;;;5032772;28;19960;-80
2023/07/12 14:00:14;;;;;;;;;;;29.40;91.30;;;;;;5021634;28;19959;-80
2023/07/12 14:02:44;;;;;;;;;;;29.40;91.30;;;;;;4999242;28;20304;-80
2023/07/12 14:05:10;;;;;;;;;;;29.80;91.30;;;;;;5001412;28;19920;-79
2023/07/12 14:07:38;;;;;;;;;;;30.00;90.40;;;;;;5023438;28;20365;-79
2023/07/12 14:10:06;;;;;;;;;;;29.60;89.60;;;;;;5036889;28;19913;-79
2023/07/12 14:12:38;;;;;;;;;;;29.40;90.30;;;;;;5037039;28;19921;-79
2023/07/12 14:15:08;;;;;;;;;;;29.20;89.90;;;;;;4999852;28;20266;-80
2023/07/12 14:17:35;;;;;;;;;;;28.60;90.80;;;;;;5022260;28;19929;-80
2023/07/12 14:20:02;;;;;;;;;;;28.10;91.20;;;;;;5032864;28;19931;-80
2023/07/12 14:22:36;;;;;;;;;;;27.70;91.80;;;;;;5005058;28;19917;-80
2023/07/12 14:25:02;;;;;;;;;;;27.30;91.60;;;;;;5035876;28;19917;-79